Terminal Aerodrome Forecast
Issued by NWS

Home | Current Version | Previous Version | Text Only | Print | Product List | Glossary On
Versions: 1 2 3 4 5 6 7 8 9 10 11 12 13 14
000
FTUS46 KSEW 231120
TAFBLI
TAF
KBLI 231120Z 2312/2412 13007KT P6SM SCT040 BKN050 OVC100
     FM231300 06011KT P6SM -RA BKN040 OVC050 WS020/17040KT
     FM232200 13018G30KT P6SM -RA BKN035 OVC050
     FM240400 15015G23KT 6SM -RA BR OVC025=

USA.gov is the U.S. government's official web portal to all federal, state and local government web resources and services.